createdAt,value
2023-04-17T00:00:17.032Z,26.33
2023-04-17T00:02:45.074Z,29.05
2023-04-17T00:05:11.954Z,32.25
2023-04-17T00:07:38.811Z,28.45
2023-04-17T00:10:07.818Z,32.38
2023-04-17T00:12:34.807Z,26.80
2023-04-17T00:15:01.459Z,29.65
2023-04-17T00:17:27.965Z,27.70
2023-04-17T00:19:54.528Z,29.52
2023-04-17T00:22:21.143Z,30.20
2023-04-17T00:24:47.638Z,31.63
2023-04-17T00:27:14.057Z,28.05
2023-04-17T00:29:40.605Z,27.92
2023-04-17T00:32:07.536Z,28.00
2023-04-17T00:34:33.973Z,25.00
2023-04-17T00:37:00.424Z,23.58
2023-04-17T00:39:27.190Z,20.77
2023-04-17T00:41:53.765Z,22.80
2023-04-17T00:44:20.890Z,20.00
2023-04-17T00:46:47.681Z,19.50
2023-04-17T00:49:14.160Z,18.95
2023-04-17T00:51:40.778Z,20.90
2023-04-17T00:54:07.807Z,20.88
2023-04-17T00:56:34.329Z,20.08
2023-04-17T00:59:03.866Z,17.25
2023-04-17T01:01:30.439Z,18.55
2023-04-17T01:03:59.794Z,20.67
2023-04-17T01:06:27.038Z,17.30
2023-04-17T01:08:53.957Z,17.38
2023-04-17T01:11:20.429Z,18.40
2023-04-17T01:13:51.365Z,17.23
2023-04-17T01:16:19.042Z,16.30
2023-04-17T01:18:48.178Z,18.05
2023-04-17T01:21:15.176Z,17.48
2023-04-17T01:23:52.762Z,17.08
2023-04-17T01:26:22.863Z,18.05
2023-04-17T01:28:54.194Z,17.63
2023-04-17T01:31:21.215Z,16.38
2023-04-17T01:33:48.686Z,17.73
2023-04-17T01:36:15.809Z,17.27
2023-04-17T01:38:42.460Z,18.55
2023-04-17T01:41:10.119Z,16.42
2023-04-17T01:43:41.972Z,15.07
2023-04-17T01:46:09.161Z,20.98
2023-04-17T01:48:36.577Z,18.17
2023-04-17T01:51:03.745Z,16.02
2023-04-17T01:53:31.236Z,16.77
2023-04-17T01:55:58.509Z,19.02
2023-04-17T01:58:24.940Z,15.95
2023-04-17T02:00:51.974Z,16.98
2023-04-17T02:03:19.069Z,17.38
2023-04-17T02:05:47.245Z,19.00
2023-04-17T02:08:14.604Z,17.13
2023-04-17T02:10:42.152Z,17.75
2023-04-17T02:13:09.189Z,19.40
2023-04-17T02:15:36.813Z,18.85
2023-04-17T02:18:06.092Z,18.00
2023-04-17T02:20:35.956Z,16.23
2023-04-17T02:23:03.896Z,16.00
2023-04-17T02:25:31.395Z,17.17
2023-04-17T02:27:57.956Z,19.08
2023-04-17T02:30:25.583Z,16.48
2023-04-17T02:32:55.146Z,18.17
2023-04-17T02:35:24.839Z,20.05
2023-04-17T02:37:51.759Z,19.58
2023-04-17T02:40:19.253Z,18.88
2023-04-17T02:42:48.838Z,17.73
2023-04-17T02:45:15.468Z,18.80
2023-04-17T02:47:42.885Z,19.77
2023-04-17T02:50:10.731Z,17.05
2023-04-17T02:52:46.143Z,18.48
2023-04-17T02:55:12.610Z,18.75
2023-04-17T02:57:40.838Z,21.30
2023-04-17T03:00:14.725Z,19.63
2023-04-17T03:02:41.509Z,19.42
2023-04-17T03:05:09.161Z,22.25
2023-04-17T03:07:35.798Z,19.58
2023-04-17T03:10:02.736Z,21.35
2023-04-17T03:12:30.422Z,19.13
2023-04-17T03:14:56.843Z,20.55
2023-04-17T03:17:23.384Z,20.88
2023-04-17T03:19:49.942Z,20.70
2023-04-17T03:22:16.458Z,21.98
2023-04-17T03:24:43.024Z,21.45
2023-04-17T03:27:09.987Z,20.25
2023-04-17T03:29:40.713Z,18.58
2023-04-17T03:32:09.599Z,20.35
2023-04-17T03:34:36.105Z,20.13
2023-04-17T03:37:03.675Z,22.88
2023-04-17T03:39:31.110Z,23.23
2023-04-17T03:41:57.591Z,23.75
2023-04-17T03:44:24.080Z,21.33
2023-04-17T03:46:50.496Z,23.08
2023-04-17T03:49:17.260Z,20.48
2023-04-17T03:51:43.963Z,24.13
2023-04-17T03:54:16.478Z,19.88
2023-04-17T03:56:45.265Z,20.60
2023-04-17T03:59:12.586Z,19.95
2023-04-17T04:01:43.775Z,22.30
2023-04-17T04:04:18.181Z,23.58
2023-04-17T04:06:44.948Z,20.55
2023-04-17T04:09:14.673Z,23.95
2023-04-17T04:11:42.188Z,21.90
2023-04-17T04:14:08.891Z,22.35
2023-04-17T04:16:35.522Z,22.27
2023-04-17T04:19:11.761Z,21.95
2023-04-17T04:21:38.755Z,21.23
2023-04-17T04:24:08.580Z,27.52
2023-04-17T04:26:36.879Z,21.55
2023-04-17T04:29:03.705Z,20.70
2023-04-17T04:31:39.887Z,23.38
2023-04-17T04:34:08.914Z,25.20
2023-04-17T04:36:41.778Z,22.98
2023-04-17T04:39:21.573Z,23.75
2023-04-17T04:41:50.750Z,21.85
2023-04-17T04:44:19.874Z,21.40
2023-04-17T04:46:47.747Z,23.85
2023-04-17T04:49:15.220Z,24.58
2023-04-17T04:51:41.856Z,25.17
2023-04-17T04:54:08.914Z,22.80
2023-04-17T04:56:44.957Z,20.60
2023-04-17T04:59:13.438Z,22.70
2023-04-17T05:01:45.363Z,21.00
2023-04-17T05:04:14.131Z,22.15
2023-04-17T05:06:41.517Z,22.48
2023-04-17T05:09:08.451Z,22.23
2023-04-17T05:11:35.045Z,24.27
2023-04-17T05:14:01.663Z,24.77
2023-04-17T05:16:31.222Z,26.40
2023-04-17T05:18:58.456Z,29.45
2023-04-17T05:21:50.958Z,27.48
2023-04-17T05:24:19.893Z,24.20
2023-04-17T05:26:48.636Z,28.67
2023-04-17T05:29:15.364Z,24.02
2023-04-17T05:31:41.944Z,23.83
2023-04-17T05:34:20.041Z,26.70
2023-04-17T05:36:46.583Z,26.98
2023-04-17T05:39:13.993Z,25.00
2023-04-17T05:41:40.580Z,23.25
2023-04-17T05:44:07.253Z,21.25
2023-04-17T05:46:33.671Z,22.75
2023-04-17T05:49:00.277Z,28.05
2023-04-17T05:51:26.989Z,25.73
2023-04-17T05:53:53.682Z,24.17
2023-04-17T05:56:20.991Z,28.92
2023-04-17T05:58:48.484Z,23.83
2023-04-17T06:01:17.326Z,25.40
2023-04-17T06:03:44.010Z,27.67
2023-04-17T06:06:16.451Z,25.35
2023-04-17T06:08:42.860Z,24.77
2023-04-17T06:11:09.723Z,25.85
2023-04-17T06:13:36.861Z,25.45
2023-04-17T06:16:04.180Z,29.33
2023-04-17T06:18:30.821Z,28.00
2023-04-17T06:20:57.429Z,27.40
2023-04-17T06:23:24.292Z,28.48
2023-04-17T06:25:50.865Z,31.25
2023-04-17T06:28:18.450Z,34.22
2023-04-17T06:30:45.429Z,33.65
2023-04-17T06:33:11.868Z,33.20
2023-04-17T06:35:39.199Z,37.58
2023-04-17T06:38:23.632Z,35.95
2023-04-17T06:40:52.484Z,28.70
2023-04-17T06:43:19.288Z,27.45
2023-04-17T06:45:45.724Z,31.13
2023-04-17T06:48:12.541Z,32.75
2023-04-17T06:50:38.989Z,30.15
2023-04-17T06:53:06.402Z,28.83
2023-04-17T06:55:32.806Z,34.08
2023-04-17T06:57:59.215Z,27.17
2023-04-17T07:00:26.031Z,30.70
2023-04-17T07:02:52.503Z,32.58
2023-04-17T07:05:19.982Z,28.67
2023-04-17T07:07:46.460Z,26.10
2023-04-17T07:10:15.682Z,26.95
2023-04-17T07:12:42.229Z,26.50
2023-04-17T07:15:09.696Z,23.13
2023-04-17T07:17:37.928Z,26.17
2023-04-17T07:20:07.700Z,25.75
2023-04-17T07:22:37.044Z,22.20
2023-04-17T07:25:04.565Z,23.00
2023-04-17T07:27:31.075Z,24.25
2023-04-17T07:29:57.687Z,26.38
2023-04-17T07:32:24.641Z,25.85
2023-04-17T07:34:51.145Z,30.08
2023-04-17T07:37:17.814Z,24.25
2023-04-17T07:39:45.239Z,25.73
2023-04-17T07:42:11.697Z,24.98
2023-04-17T07:44:39.023Z,26.90
2023-04-17T07:47:05.553Z,28.55
2023-04-17T07:49:32.339Z,28.02
2023-04-17T07:51:58.829Z,28.67
2023-04-17T07:54:25.553Z,26.10
2023-04-17T07:56:52.034Z,26.40
2023-04-17T07:59:18.500Z,27.85
2023-04-17T08:01:45.050Z,28.83
2023-04-17T08:04:11.736Z,24.50
2023-04-17T08:06:39.036Z,28.25
2023-04-17T08:09:05.502Z,28.77
2023-04-17T08:11:35.689Z,23.05
2023-04-17T08:14:06.504Z,25.63
2023-04-17T08:16:33.445Z,25.08
2023-04-17T08:18:59.938Z,28.33
2023-04-17T08:21:26.692Z,25.02
2023-04-17T08:23:53.097Z,26.27
2023-04-17T08:26:20.523Z,24.27
2023-04-17T08:28:47.074Z,26.20
2023-04-17T08:31:13.944Z,25.55
2023-04-17T08:33:40.644Z,22.63
2023-04-17T08:36:09.659Z,26.35
2023-04-17T08:38:36.514Z,24.73
2023-04-17T08:41:06.074Z,28.42
2023-04-17T08:43:35.320Z,25.25
2023-04-17T08:46:03.003Z,27.25
2023-04-17T08:48:30.519Z,24.95
2023-04-17T08:50:57.036Z,24.40
2023-04-17T08:53:23.498Z,23.45
2023-04-17T08:55:50.075Z,23.40
2023-04-17T08:58:17.784Z,27.70
2023-04-17T09:00:45.229Z,21.92
2023-04-17T09:03:13.823Z,21.52
2023-04-17T09:08:17.114Z,17.67
2023-04-17T09:10:45.894Z,23.40
2023-04-17T09:15:44.042Z,22.20
2023-04-17T09:18:33.012Z,20.38
2023-04-17T09:21:00.879Z,20.98
2023-04-17T09:23:28.894Z,21.45
2023-04-17T09:26:13.596Z,20.38
2023-04-17T09:28:40.780Z,21.52
2023-04-17T09:31:27.588Z,24.00
2023-04-17T09:33:58.246Z,21.25
2023-04-17T09:36:31.585Z,22.52
2023-04-17T09:39:02.303Z,21.35
2023-04-17T09:41:31.614Z,26.77
2023-04-17T09:44:05.235Z,22.77
2023-04-17T09:46:31.659Z,20.35
2023-04-17T09:49:18.672Z,24.75
2023-04-17T09:51:46.368Z,22.13
2023-04-17T09:54:14.953Z,24.27
2023-04-17T09:59:08.802Z,24.42
2023-04-17T10:01:37.802Z,26.63
2023-04-17T10:04:05.517Z,19.85
2023-04-17T10:06:33.007Z,22.73
2023-04-17T10:08:59.989Z,24.08
2023-04-17T10:11:34.155Z,21.90
2023-04-17T10:14:13.597Z,23.50
2023-04-17T10:16:44.968Z,23.70
2023-04-17T10:19:34.127Z,21.33
2023-04-17T10:22:15.918Z,23.60
2023-04-17T10:24:43.048Z,22.13
2023-04-17T10:27:25.005Z,21.10
2023-04-17T10:29:58.418Z,25.98
2023-04-17T10:32:27.715Z,22.88
2023-04-17T10:35:00.834Z,22.25
2023-04-17T10:37:47.355Z,22.83
2023-04-17T10:40:30.664Z,24.05
2023-04-17T10:43:22.572Z,21.42
2023-04-17T10:48:47.724Z,22.90
2023-04-17T10:51:20.410Z,23.50
2023-04-17T10:54:00.187Z,24.08
2023-04-17T10:56:27.630Z,21.80
2023-04-17T10:59:02.074Z,21.83
2023-04-17T11:01:38.009Z,22.55
2023-04-17T11:04:05.194Z,22.55
2023-04-17T11:06:33.097Z,22.35
2023-04-17T11:09:00.490Z,21.30
2023-04-17T11:11:42.979Z,23.17
2023-04-17T11:14:14.388Z,23.05
2023-04-17T11:16:43.243Z,21.90
2023-04-17T11:21:44.776Z,21.48
2023-04-17T11:24:12.051Z,22.90
2023-04-17T11:26:46.154Z,22.27
2023-04-17T11:29:20.409Z,19.83
2023-04-17T11:31:48.327Z,19.50
2023-04-17T11:34:16.193Z,19.85
2023-04-17T11:36:57.135Z,19.38
2023-04-17T11:39:25.538Z,22.13
2023-04-17T11:44:20.563Z,16.98
2023-04-17T11:46:54.887Z,18.85
2023-04-17T11:49:31.724Z,18.00
2023-04-17T11:52:01.983Z,17.75
2023-04-17T11:54:29.402Z,18.33
2023-04-17T11:57:01.307Z,18.83
2023-04-17T11:59:38.787Z,18.95
2023-04-17T12:02:07.364Z,17.27
2023-04-17T12:04:35.367Z,18.95
2023-04-17T12:07:07.240Z,17.10
2023-04-17T12:09:35.499Z,17.13
2023-04-17T12:12:05.573Z,17.10
2023-04-17T12:14:32.612Z,15.57
2023-04-17T12:16:59.375Z,16.27
2023-04-17T12:19:27.211Z,17.90
2023-04-17T12:21:54.403Z,15.65
2023-04-17T12:24:24.036Z,17.15
2023-04-17T12:26:52.354Z,17.80
2023-04-17T12:29:26.517Z,17.25
2023-04-17T12:34:27.235Z,18.90
2023-04-17T12:36:54.299Z,17.98
2023-04-17T12:39:20.770Z,19.33
2023-04-17T12:41:47.276Z,17.65
2023-04-17T12:44:14.333Z,17.23
2023-04-17T12:46:41.120Z,17.05
2023-04-17T12:49:07.656Z,17.25
2023-04-17T12:51:37.591Z,16.98
2023-04-17T12:54:04.346Z,15.48
2023-04-17T12:56:30.835Z,15.93
2023-04-17T12:58:57.277Z,17.23
2023-04-17T13:01:25.156Z,18.55
2023-04-17T13:03:51.833Z,16.63
2023-04-17T13:06:18.544Z,15.88
2023-04-17T13:08:45.012Z,16.30
2023-04-17T13:11:11.473Z,16.02
2023-04-17T13:13:37.875Z,18.98
2023-04-17T13:16:04.814Z,16.52
2023-04-17T13:18:31.310Z,16.45
2023-04-17T13:20:57.809Z,17.67
2023-04-17T13:23:24.200Z,16.30
2023-04-17T13:25:50.652Z,15.05
2023-04-17T13:28:17.148Z,17.50
2023-04-17T13:30:43.659Z,15.05
2023-04-17T13:33:10.261Z,15.25
2023-04-17T13:35:36.661Z,14.85
2023-04-17T13:38:04.537Z,13.32
2023-04-17T13:40:31.193Z,16.92
2023-04-17T13:42:58.354Z,14.80
2023-04-17T13:45:24.869Z,9.38
2023-04-17T13:47:51.457Z,8.55
2023-04-17T13:50:17.940Z,11.52
2023-04-17T13:52:44.447Z,13.40
2023-04-17T13:55:14.640Z,12.32
2023-04-17T13:57:41.577Z,14.30
2023-04-17T14:00:08.701Z,12.90
2023-04-17T14:02:35.374Z,12.82
2023-04-17T14:05:02.219Z,12.85
2023-04-17T14:07:29.976Z,12.38
2023-04-17T14:09:56.455Z,12.73
2023-04-17T14:12:23.602Z,13.40
2023-04-17T14:14:50.212Z,12.25
2023-04-17T14:17:16.726Z,11.68
2023-04-17T14:19:43.185Z,15.00
2023-04-17T14:22:09.653Z,11.82
2023-04-17T14:24:36.068Z,15.30
2023-04-17T14:27:02.518Z,13.30
2023-04-17T14:29:28.990Z,14.70
2023-04-17T14:31:55.526Z,14.95
2023-04-17T14:34:22.136Z,15.00
2023-04-17T14:36:48.757Z,13.25
2023-04-17T14:39:15.613Z,12.20
2023-04-17T14:41:42.296Z,15.20
2023-04-17T14:44:08.904Z,14.75
2023-04-17T14:46:35.649Z,13.73
2023-04-17T14:49:02.340Z,12.20
2023-04-17T14:51:30.587Z,13.77
2023-04-17T14:53:57.473Z,16.60
2023-04-17T14:56:24.170Z,15.05
2023-04-17T14:58:50.702Z,13.55
2023-04-17T15:01:17.261Z,14.20
2023-04-17T15:03:46.768Z,14.85
2023-04-17T15:06:14.984Z,14.93
2023-04-17T15:08:41.713Z,12.50
2023-04-17T15:11:08.884Z,13.05
2023-04-17T15:13:35.927Z,12.45
2023-04-17T15:16:02.590Z,14.73
2023-04-17T15:18:29.154Z,16.83
2023-04-17T15:20:55.909Z,11.80
2023-04-17T15:23:22.849Z,11.52
2023-04-17T15:25:49.470Z,12.55
2023-04-17T15:28:15.967Z,14.43
2023-04-17T15:30:42.670Z,15.45
2023-04-17T15:33:10.240Z,17.33
2023-04-17T15:35:37.317Z,15.85
2023-04-17T15:38:05.120Z,17.42
2023-04-17T15:40:31.619Z,18.20
2023-04-17T15:42:58.100Z,18.70
2023-04-17T15:45:27.137Z,17.38
2023-04-17T15:47:54.560Z,17.70
2023-04-17T15:50:21.796Z,17.33
2023-04-17T15:52:49.295Z,19.45
2023-04-17T15:55:15.843Z,15.80
2023-04-17T15:57:47.084Z,15.68
2023-04-17T16:00:14.192Z,14.07
2023-04-17T16:02:40.751Z,17.25
2023-04-17T16:05:07.808Z,15.38
2023-04-17T16:07:34.308Z,15.07
2023-04-17T16:10:00.708Z,13.75
2023-04-17T16:12:28.183Z,14.02
2023-04-17T16:14:54.778Z,13.95
2023-04-17T16:17:21.306Z,13.73
2023-04-17T16:19:50.380Z,11.65
2023-04-17T16:22:18.417Z,12.95
2023-04-17T16:24:44.863Z,12.13
2023-04-17T16:27:11.429Z,14.70
2023-04-17T16:29:37.919Z,16.27
2023-04-17T16:32:04.476Z,13.88
2023-04-17T16:34:31.017Z,15.90
2023-04-17T16:36:57.426Z,12.77
2023-04-17T16:39:24.028Z,13.18
2023-04-17T16:41:52.194Z,14.50
2023-04-17T16:44:18.675Z,18.33
2023-04-17T16:47:03.140Z,16.92
2023-04-17T16:49:31.639Z,13.52
2023-04-17T16:51:58.996Z,14.18
2023-04-17T16:54:26.111Z,15.95
2023-04-17T16:56:52.597Z,15.27
2023-04-17T16:59:19.153Z,12.80
2023-04-17T17:01:47.112Z,13.73
2023-04-17T17:04:13.773Z,14.70
2023-04-17T17:06:40.352Z,14.50
2023-04-17T17:09:06.777Z,16.05
2023-04-17T17:11:33.362Z,14.98
2023-04-17T17:13:59.817Z,15.10
2023-04-17T17:16:26.340Z,15.00
2023-04-17T17:18:52.836Z,16.50
2023-04-17T17:21:19.301Z,13.90
2023-04-17T17:23:45.849Z,15.48
2023-04-17T17:26:12.520Z,15.80
2023-04-17T17:28:39.186Z,16.75
2023-04-17T17:31:09.566Z,17.38
2023-04-17T17:33:36.511Z,15.73
2023-04-17T17:36:03.213Z,14.32
2023-04-17T17:38:30.760Z,15.75
2023-04-17T17:40:57.476Z,15.50
2023-04-17T17:43:24.250Z,16.77
2023-04-17T17:45:50.988Z,15.23
2023-04-17T17:48:18.217Z,15.00
2023-04-17T17:50:44.822Z,15.15
2023-04-17T17:53:12.492Z,14.70
2023-04-17T17:55:39.889Z,14.38
2023-04-17T17:58:08.204Z,16.05
2023-04-17T18:00:35.420Z,15.45
2023-04-17T18:03:02.136Z,14.40
2023-04-17T18:05:28.767Z,23.10
2023-04-17T18:07:55.430Z,16.25
2023-04-17T18:10:21.902Z,17.10
2023-04-17T18:12:49.147Z,17.90
2023-04-17T18:15:15.789Z,14.52
2023-04-17T18:17:42.698Z,16.85
2023-04-17T18:20:09.723Z,17.05
2023-04-17T18:22:37.958Z,15.75
2023-04-17T18:25:06.214Z,14.85
2023-04-17T18:27:32.878Z,17.80
2023-04-17T18:29:59.315Z,21.15
2023-04-17T18:32:25.895Z,14.85
2023-04-17T18:34:52.391Z,17.05
2023-04-17T18:37:18.868Z,14.98
2023-04-17T18:39:45.413Z,16.30
2023-04-17T18:42:11.980Z,17.38
2023-04-17T18:44:38.476Z,18.65
2023-04-17T18:47:05.255Z,16.92
2023-04-17T18:49:31.738Z,20.17
2023-04-17T18:51:58.324Z,14.25
2023-04-17T18:54:24.837Z,18.60
2023-04-17T18:56:51.393Z,20.42
2023-04-17T18:59:19.896Z,18.40
2023-04-17T19:01:46.539Z,18.15
2023-04-17T19:04:13.401Z,19.13
2023-04-17T19:06:40.184Z,19.50
2023-04-17T19:09:06.729Z,17.20
2023-04-17T19:11:33.524Z,20.25
2023-04-17T19:14:00.107Z,20.13
2023-04-17T19:16:26.802Z,18.90
2023-04-17T19:18:53.369Z,22.40
2023-04-17T19:21:19.770Z,19.27
2023-04-17T19:23:47.752Z,18.13
2023-04-17T19:26:15.687Z,20.67
2023-04-17T19:28:42.273Z,16.67
2023-04-17T19:31:09.267Z,19.38
2023-04-17T19:33:35.933Z,20.20
2023-04-17T19:36:05.016Z,19.08
2023-04-17T19:38:34.191Z,17.40
2023-04-17T19:41:14.672Z,16.75
2023-04-17T19:43:42.450Z,15.70
2023-04-17T19:46:09.322Z,14.07
2023-04-17T19:48:36.758Z,19.42
2023-04-17T19:51:07.690Z,18.48
2023-04-17T19:53:36.239Z,15.73
2023-04-17T19:56:05.287Z,14.45
2023-04-17T19:58:33.122Z,16.02
2023-04-17T20:01:00.958Z,14.82
2023-04-17T20:03:28.678Z,13.50
2023-04-17T20:05:57.210Z,13.32
2023-04-17T20:08:24.386Z,15.45
2023-04-17T20:10:51.006Z,18.50
2023-04-17T20:13:17.532Z,15.30
2023-04-17T20:15:44.162Z,15.10
2023-04-17T20:18:11.256Z,15.07
2023-04-17T20:20:38.799Z,18.80
2023-04-17T20:23:05.562Z,16.02
2023-04-17T20:25:32.086Z,14.80
2023-04-17T20:27:58.588Z,16.05
2023-04-17T20:30:25.416Z,16.45
2023-04-17T20:32:52.443Z,17.73
2023-04-17T20:35:20.863Z,16.92
2023-04-17T20:37:47.396Z,17.83
2023-04-17T20:40:14.281Z,17.48
2023-04-17T20:42:42.053Z,16.70
2023-04-17T20:45:09.966Z,22.38
2023-04-17T20:47:37.708Z,16.77
2023-04-17T20:50:05.297Z,16.83
2023-04-17T20:52:32.952Z,18.20
2023-04-17T20:55:00.894Z,15.30
2023-04-17T20:57:28.548Z,17.83
2023-04-17T20:59:55.374Z,16.55
2023-04-17T21:02:22.035Z,15.55
2023-04-17T21:04:49.503Z,15.63
2023-04-17T21:07:16.498Z,17.13
2023-04-17T21:09:43.000Z,16.55
2023-04-17T21:12:09.465Z,13.40
2023-04-17T21:14:36.568Z,14.85
2023-04-17T21:17:03.101Z,12.70
2023-04-17T21:19:32.198Z,15.82
2023-04-17T21:21:58.648Z,17.02
2023-04-17T21:24:25.361Z,17.70
2023-04-17T21:26:54.013Z,17.92
2023-04-17T21:29:20.552Z,20.17
2023-04-17T21:31:47.000Z,17.13
2023-04-17T21:34:13.855Z,16.20
2023-04-17T21:36:40.621Z,18.02
2023-04-17T21:39:07.256Z,16.35
2023-04-17T21:41:33.817Z,16.92
2023-04-17T21:44:02.392Z,16.67
2023-04-17T21:46:29.232Z,15.00
2023-04-17T21:48:55.948Z,17.90
2023-04-17T21:51:23.148Z,16.52
2023-04-17T21:53:49.603Z,16.10
2023-04-17T21:56:16.037Z,16.50
2023-04-17T21:58:42.545Z,16.15
2023-04-17T22:01:10.136Z,17.75
2023-04-17T22:03:36.637Z,14.98
2023-04-17T22:06:03.669Z,17.50
2023-04-17T22:08:30.279Z,16.52
2023-04-17T22:10:56.739Z,19.02
2023-04-17T22:13:23.154Z,20.52
2023-04-17T22:15:49.632Z,21.30
2023-04-17T22:18:17.524Z,19.98
2023-04-17T22:21:02.450Z,18.75
2023-04-17T22:23:30.578Z,21.60
2023-04-17T22:27:12.377Z,17.75
2023-04-17T22:30:35.434Z,19.17
2023-04-17T22:33:39.462Z,18.48
2023-04-17T22:36:43.260Z,21.50
2023-04-17T22:40:05.885Z,19.20
2023-04-17T22:43:28.483Z,20.33
2023-04-17T22:46:13.959Z,15.15
2023-04-17T22:49:19.635Z,19.83
2023-04-17T22:51:47.162Z,17.40
2023-04-17T22:55:10.264Z,20.27
2023-04-17T22:57:55.370Z,20.67
2023-04-17T23:00:40.687Z,20.92
2023-04-17T23:03:25.528Z,21.08
2023-04-17T23:05:55.130Z,17.65
2023-04-17T23:08:22.613Z,21.65
2023-04-17T23:10:58.698Z,21.30
2023-04-17T23:13:26.668Z,21.38
2023-04-17T23:15:53.894Z,17.67
2023-04-17T23:18:20.364Z,18.35
2023-04-17T23:20:46.879Z,21.35
2023-04-17T23:23:13.375Z,22.65
2023-04-17T23:25:39.791Z,16.45
2023-04-17T23:28:06.270Z,20.70
2023-04-17T23:30:32.675Z,19.52
2023-04-17T23:32:59.125Z,24.70
2023-04-17T23:35:25.774Z,20.35
2023-04-17T23:37:52.259Z,20.25
2023-04-17T23:40:18.659Z,19.42
2023-04-17T23:42:45.802Z,19.67
2023-04-17T23:45:12.230Z,22.48
2023-04-17T23:47:38.676Z,19.00
2023-04-17T23:50:05.481Z,22.73
2023-04-17T23:52:32.528Z,18.17
2023-04-17T23:54:58.940Z,18.08
2023-04-17T23:57:25.415Z,17.45
2023-04-17T23:59:51.879Z,14.07
